Time;durP1;ratioP1;P1;durP2;ratioP2;P2;SDS_P1;SDS_P2;PMS_P1;PMS_P2;Temp;Humidity;BMP_temperature;BMP_pressure;BME280_temperature;BME280_humidity;BME280_pressure;Samples;Min_cycle;Max_cycle;Signal;HPM_P1;HPM_P2
2023/03/16 00:01:06;;;;;;;2.50;0.88;;;7.70;99.90;;;;;;5044417;28;20050;-81
2023/03/16 00:03:33;;;;;;;1.35;0.88;;;7.80;99.90;;;;;;5051126;28;20135;-82
2023/03/16 00:06:00;;;;;;;1.50;0.80;;;7.80;99.90;;;;;;5071812;28;20139;-82
2023/03/16 00:08:27;;;;;;;1.48;0.82;;;7.80;99.90;;;;;;5029479;28;20509;-82
2023/03/16 00:10:54;;;;;;;1.63;0.90;;;7.80;99.90;;;;;;5074081;28;20457;-81
2023/03/16 00:13:25;;;;;;;1.95;0.80;;;7.80;99.90;;;;;;5043746;28;20535;-81
2023/03/16 00:15:55;;;;;;;4.03;0.90;;;7.80;99.90;;;;;;5074802;28;20084;-81
2023/03/16 00:18:26;;;;;;;1.45;0.80;;;7.80;99.90;;;;;;5044655;28;20292;-82
2023/03/16 00:20:54;;;;;;;2.63;1.05;;;7.80;99.90;;;;;;5060166;28;20052;-82
2023/03/16 00:23:27;;;;;;;2.08;0.70;;;7.80;99.90;;;;;;5061897;28;20129;-82
2023/03/16 00:25:58;;;;;;;1.52;0.90;;;7.90;99.90;;;;;;5059430;28;20303;-82
2023/03/16 00:28:26;;;;;;;2.55;1.05;;;7.80;99.90;;;;;;5042972;28;20167;-82
2023/03/16 00:30:57;;;;;;;1.48;0.70;;;7.90;99.90;;;;;;5075578;28;20052;-82
2023/03/16 00:33:25;;;;;;;0.98;0.55;;;7.90;99.90;;;;;;5058976;28;20164;-82
2023/03/16 00:36:00;;;;;;;1.88;0.90;;;7.90;99.90;;;;;;5038741;28;20466;-83
2023/03/16 00:38:33;;;;;;;1.02;0.70;;;7.90;99.90;;;;;;5057544;28;20051;-82
2023/03/16 00:41:04;;;;;;;0.85;0.60;;;8.00;99.90;;;;;;5058596;28;20052;-81
2023/03/16 00:43:39;;;;;;;0.85;0.60;;;8.00;99.90;;;;;;5041592;28;20124;-81
2023/03/16 00:46:11;;;;;;;1.67;0.77;;;8.00;99.90;;;;;;5071670;28;20049;-82
2023/03/16 00:48:41;;;;;;;1.05;0.73;;;8.00;99.90;;;;;;5063043;28;20074;-81
2023/03/16 00:51:11;;;;;;;1.17;0.60;;;8.10;99.90;;;;;;5064180;28;20139;-81
2023/03/16 00:53:39;;;;;;;1.70;0.73;;;8.10;99.90;;;;;;5041182;28;20130;-82
2023/03/16 00:56:07;;;;;;;0.77;0.60;;;8.10;99.90;;;;;;5040857;28;20048;-81
2023/03/16 00:58:36;;;;;;;0.70;0.52;;;8.10;99.90;;;;;;5058295;28;20056;-82
2023/03/16 01:01:13;;;;;;;1.45;0.60;;;8.10;99.90;;;;;;5045768;28;20127;-82
2023/03/16 01:03:41;;;;;;;0.95;0.60;;;8.10;99.90;;;;;;5046092;28;20048;-82
2023/03/16 01:06:13;;;;;;;0.80;0.65;;;8.20;99.90;;;;;;5028709;28;20088;-81
2023/03/16 01:08:40;;;;;;;1.42;0.80;;;8.20;99.90;;;;;;5060821;28;20051;-81
2023/03/16 01:11:12;;;;;;;1.80;0.77;;;8.20;99.90;;;;;;5079983;28;20151;-82
2023/03/16 01:13:39;;;;;;;1.20;0.70;;;8.20;99.90;;;;;;5062195;28;20634;-82
2023/03/16 01:16:06;;;;;;;0.98;0.60;;;8.20;99.90;;;;;;5045039;28;20070;-82
2023/03/16 01:18:33;;;;;;;1.30;0.60;;;8.20;99.90;;;;;;5058750;28;20139;-81
2023/03/16 01:21:02;;;;;;;0.93;0.55;;;8.20;99.90;;;;;;5060023;28;20072;-82
2023/03/16 01:23:30;;;;;;;0.73;0.43;;;8.20;99.90;;;;;;5057284;28;20122;-81
2023/03/16 01:25:57;;;;;;;1.45;0.90;;;8.20;99.90;;;;;;5042688;28;20488;-82
2023/03/16 01:28:26;;;;;;;0.57;0.47;;;8.30;99.90;;;;;;5058225;28;20482;-82
2023/03/16 01:30:56;;;;;;;1.20;0.60;;;8.30;99.90;;;;;;5057474;28;20495;-82
2023/03/16 01:33:24;;;;;;;1.25;0.60;;;8.30;99.90;;;;;;5061928;28;20048;-83
2023/03/16 01:36:04;;;;;;;1.13;0.75;;;8.30;99.90;;;;;;5049377;28;20429;-82
2023/03/16 01:38:32;;;;;;;0.73;0.60;;;8.30;99.90;;;;;;5039814;28;20054;-82
2023/03/16 01:40:59;;;;;;;0.88;0.60;;;8.30;99.90;;;;;;5048012;28;20139;-81
2023/03/16 01:43:28;;;;;;;0.73;0.55;;;8.30;99.90;;;;;;5082380;28;20048;-82
2023/03/16 01:46:03;;;;;;;0.65;0.50;;;8.30;99.90;;;;;;5065272;28;20136;-82
2023/03/16 01:49:05;;;;;;;1.17;0.60;;;8.30;99.90;;;;;;5080944;28;20183;-82
2023/03/16 01:51:46;;;;;;;1.65;0.80;;;8.30;99.90;;;;;;5071297;28;20476;-82
2023/03/16 01:54:18;;;;;;;1.05;0.73;;;8.30;99.90;;;;;;5049177;28;20044;-82
2023/03/16 01:56:50;;;;;;;0.50;0.50;;;8.30;99.90;;;;;;5065173;28;20116;-80
2023/03/16 01:59:19;;;;;;;1.00;0.50;;;8.40;99.90;;;;;;5065792;28;20143;-82
2023/03/16 02:01:46;;;;;;;0.60;0.50;;;8.30;99.90;;;;;;5065405;28;20113;-81
2023/03/16 02:04:21;;;;;;;0.82;0.57;;;8.40;99.90;;;;;;5062953;28;20692;-81
2023/03/16 02:06:49;;;;;;;0.40;0.40;;;8.40;99.90;;;;;;5047577;28;20087;-81
2023/03/16 02:09:16;;;;;;;0.73;0.50;;;8.40;99.90;;;;;;5087019;28;20047;-82
2023/03/16 02:11:43;;;;;;;0.57;0.40;;;8.50;99.90;;;;;;5065049;28;20056;-82
2023/03/16 02:14:10;;;;;;;0.90;0.70;;;8.50;99.90;;;;;;5083404;28;20044;-82
2023/03/16 02:16:38;;;;;;;0.85;0.57;;;8.50;99.90;;;;;;5048938;28;20398;-82
2023/03/16 02:19:07;;;;;;;0.55;0.45;;;8.50;99.90;;;;;;5065435;28;20056;-82
2023/03/16 02:21:48;;;;;;;0.85;0.50;;;8.50;99.90;;;;;;5044483;28;20139;-82
2023/03/16 02:24:15;;;;;;;1.20;0.73;;;8.50;99.90;;;;;;5064260;28;20206;-82
2023/03/16 02:26:47;;;;;;;0.65;0.55;;;8.50;99.90;;;;;;5066705;28;20139;-82
2023/03/16 02:29:38;;;;;;;1.13;0.70;;;8.60;99.90;;;;;;5081748;28;20127;-82
2023/03/16 02:32:05;;;;;;;1.08;0.80;;;8.60;99.90;;;;;;4728672;28;10000467;-82
2023/03/16 02:34:32;;;;;;;2.55;0.93;;;8.60;99.90;;;;;;5066779;28;20063;-82
2023/03/16 02:36:59;;;;;;;1.13;0.93;;;8.60;99.90;;;;;;5083110;28;20131;-82
2023/03/16 02:39:26;;;;;;;1.30;0.70;;;8.60;99.90;;;;;;5068231;28;20046;-83
2023/03/16 02:41:53;;;;;;;1.20;0.70;;;8.60;99.90;;;;;;5084163;28;20113;-82
2023/03/16 02:44:24;;;;;;;0.82;0.60;;;8.60;99.90;;;;;;5083926;28;20105;-82
2023/03/16 02:46:55;;;;;;;1.13;0.68;;;8.70;99.90;;;;;;4718655;28;10000284;-82
2023/03/16 02:49:29;;;;;;;1.40;0.60;;;8.70;99.90;;;;;;5052605;28;20134;-82
2023/03/16 02:51:56;;;;;;;0.85;0.43;;;8.70;99.90;;;;;;5057098;28;20075;-82
2023/03/16 02:54:23;;;;;;;1.10;0.60;;;8.80;99.90;;;;;;5063235;28;20055;-82
2023/03/16 02:56:50;;;;;;;1.25;0.75;;;8.80;99.90;;;;;;5063586;28;20056;-81
2023/03/16 02:59:17;;;;;;;1.52;1.00;;;8.80;99.90;;;;;;5058024;28;20093;-80
2023/03/16 03:01:44;;;;;;;1.73;0.70;;;8.90;99.90;;;;;;5045961;28;20084;-82
2023/03/16 03:04:11;;;;;;;0.65;0.55;;;8.80;99.90;;;;;;5045053;28;20047;-82
2023/03/16 03:06:38;;;;;;;1.02;0.65;;;8.90;99.90;;;;;;5042231;28;20603;-81
2023/03/16 03:09:05;;;;;;;1.25;0.60;;;8.90;99.90;;;;;;5059843;28;20087;-81
2023/03/16 03:11:35;;;;;;;2.50;0.70;;;8.90;99.90;;;;;;5056287;28;20227;-82
2023/03/16 03:14:02;;;;;;;1.60;0.88;;;9.00;99.90;;;;;;5058871;28;20076;-81
2023/03/16 03:16:30;;;;;;;0.80;0.57;;;9.00;99.90;;;;;;4678924;28;9999617;-81
2023/03/16 03:18:57;;;;;;;1.92;1.00;;;9.00;99.90;;;;;;5040317;28;20143;-82
2023/03/16 03:21:24;;;;;;;1.77;0.77;;;9.00;99.90;;;;;;5061218;28;20076;-81
2023/03/16 03:23:51;;;;;;;1.45;0.80;;;9.10;99.90;;;;;;5045031;28;20125;-82
2023/03/16 03:26:18;;;;;;;2.00;0.68;;;9.10;99.90;;;;;;5062797;28;20051;-81
2023/03/16 03:28:45;;;;;;;2.83;1.08;;;9.10;99.90;;;;;;5064043;28;20140;-81
2023/03/16 03:31:16;;;;;;;1.67;0.90;;;9.10;99.90;;;;;;5077439;28;20395;-81
2023/03/16 03:33:43;;;;;;;1.98;0.90;;;9.10;99.90;;;;;;5063456;28;20720;-82
2023/03/16 03:36:11;;;;;;;1.83;1.25;;;9.20;99.90;;;;;;5061135;28;20511;-81
2023/03/16 03:38:37;;;;;;;2.33;1.02;;;9.20;99.90;;;;;;5044945;28;20519;-82
2023/03/16 03:41:07;;;;;;;2.05;1.10;;;9.20;99.90;;;;;;5060668;28;20068;-82
2023/03/16 03:43:33;;;;;;;2.05;1.05;;;9.20;99.90;;;;;;5061621;28;20140;-82
2023/03/16 03:46:01;;;;;;;1.15;0.60;;;9.30;99.90;;;;;;5060567;28;20513;-82
2023/03/16 03:48:28;;;;;;;2.67;0.73;;;9.20;99.90;;;;;;5061994;28;20117;-82
2023/03/16 03:50:55;;;;;;;1.60;0.80;;;9.30;99.90;;;;;;5062014;28;20136;-82
2023/03/16 03:53:21;;;;;;;1.48;0.80;;;9.30;99.90;;;;;;5058885;28;20126;-83
2023/03/16 03:55:48;;;;;;;2.60;0.98;;;9.30;99.90;;;;;;5042529;28;20144;-82
2023/03/16 03:58:15;;;;;;;2.35;0.75;;;9.40;99.90;;;;;;5063001;28;20637;-82
2023/03/16 04:00:42;;;;;;;2.33;0.90;;;9.40;99.90;;;;;;5043578;28;20053;-82
2023/03/16 04:03:09;;;;;;;1.85;0.73;;;9.40;99.90;;;;;;5045252;28;20048;-82
2023/03/16 04:05:36;;;;;;;1.13;0.63;;;9.40;99.90;;;;;;5061411;28;20056;-82
2023/03/16 04:08:03;;;;;;;0.95;0.60;;;9.50;99.90;;;;;;5043977;28;20155;-82
2023/03/16 04:10:30;;;;;;;2.25;0.80;;;9.50;99.90;;;;;;5060924;28;20376;-82
2023/03/16 04:12:57;;;;;;;1.80;0.95;;;9.50;99.90;;;;;;5063196;28;20118;-81
2023/03/16 04:15:24;;;;;;;1.92;0.60;;;9.50;99.90;;;;;;5060966;28;20054;-81
2023/03/16 04:17:51;;;;;;;1.05;0.55;;;9.50;99.90;;;;;;5061908;28;20147;-81
2023/03/16 04:20:18;;;;;;;1.75;0.68;;;9.50;99.90;;;;;;5045175;28;20044;-82
2023/03/16 04:22:46;;;;;;;2.72;0.98;;;9.60;99.90;;;;;;5060570;28;20135;-82
2023/03/16 04:25:15;;;;;;;1.13;0.80;;;9.50;99.90;;;;;;5062013;28;20088;-81
2023/03/16 04:27:42;;;;;;;2.28;1.13;;;9.60;99.90;;;;;;5063359;28;20067;-81
2023/03/16 04:30:11;;;;;;;2.00;0.80;;;9.60;99.90;;;;;;5062527;28;20048;-82
2023/03/16 04:32:38;;;;;;;2.83;0.75;;;9.60;99.90;;;;;;5043638;28;20088;-82
2023/03/16 04:35:05;;;;;;;3.05;0.95;;;9.60;99.90;;;;;;5062876;28;20055;-81
2023/03/16 04:37:33;;;;;;;1.75;0.80;;;9.60;99.90;;;;;;5065739;28;20080;-82
2023/03/16 04:40:08;;;;;;;1.98;0.93;;;9.60;99.90;;;;;;5048182;28;20079;-82
2023/03/16 04:42:37;;;;;;;2.08;1.00;;;9.70;99.90;;;;;;5050673;28;20110;-82
2023/03/16 04:45:04;;;;;;;2.25;0.82;;;9.70;99.90;;;;;;5066239;28;20048;-81
2023/03/16 04:47:32;;;;;;;2.92;1.00;;;9.70;99.90;;;;;;5048069;28;20058;-82
2023/03/16 04:50:01;;;;;;;2.25;0.88;;;9.70;99.90;;;;;;5063638;28;20049;-82
2023/03/16 04:52:28;;;;;;;1.00;0.68;;;9.80;99.90;;;;;;5076338;28;20527;-81
2023/03/16 04:54:55;;;;;;;2.03;0.75;;;9.80;99.90;;;;;;5085205;28;20147;-81
2023/03/16 04:57:22;;;;;;;2.08;0.70;;;9.80;99.90;;;;;;5068304;28;20660;-81
2023/03/16 04:59:49;;;;;;;1.70;0.60;;;9.80;99.90;;;;;;5086281;28;20052;-81
2023/03/16 05:02:18;;;;;;;1.83;0.60;;;9.80;99.90;;;;;;5069232;28;20051;-81
2023/03/16 05:04:45;;;;;;;2.28;0.98;;;9.80;99.90;;;;;;5068346;28;20552;-81
2023/03/16 05:07:12;;;;;;;1.23;0.68;;;9.80;99.90;;;;;;5067642;28;20058;-81
2023/03/16 05:09:40;;;;;;;1.52;0.77;;;9.80;99.90;;;;;;5067625;28;20147;-81
2023/03/16 05:12:07;;;;;;;0.77;0.52;;;9.80;99.90;;;;;;5051808;28;20040;-81
2023/03/16 05:14:34;;;;;;;1.88;0.80;;;9.80;99.90;;;;;;5068038;28;20410;-81
2023/03/16 05:17:05;;;;;;;1.17;0.68;;;9.80;99.90;;;;;;5085027;28;20100;-80
2023/03/16 05:19:32;;;;;;;3.10;1.02;;;9.80;99.90;;;;;;5069324;28;20138;-81
2023/03/16 05:21:59;;;;;;;0.90;0.60;;;9.70;99.90;;;;;;5085526;28;20675;-81
2023/03/16 05:24:26;;;;;;;1.92;0.75;;;9.70;99.90;;;;;;5077486;28;20132;-82
2023/03/16 05:26:53;;;;;;;1.63;0.60;;;9.70;99.90;;;;;;5067439;28;20621;-80
2023/03/16 05:29:20;;;;;;;0.63;0.40;;;9.70;99.90;;;;;;5068327;28;20434;-83
2023/03/16 05:31:46;;;;;;;0.77;0.52;;;9.60;99.90;;;;;;5076753;28;20151;-82
2023/03/16 05:34:14;;;;;;;0.52;0.30;;;9.60;99.90;;;;;;5084692;28;20048;-82
2023/03/16 05:36:41;;;;;;;0.90;0.40;;;9.60;99.90;;;;;;5066863;28;20051;-83
2023/03/16 05:39:08;;;;;;;0.65;0.60;;;9.60;99.90;;;;;;5065627;28;20049;-82
2023/03/16 05:41:34;;;;;;;2.42;0.60;;;9.60;99.90;;;;;;5081410;28;20055;-83
2023/03/16 05:44:03;;;;;;;1.35;0.93;;;9.60;99.90;;;;;;5067761;28;20047;-82
2023/03/16 05:46:30;;;;;;;0.90;0.50;;;9.60;99.90;;;;;;5082683;28;20113;-82
2023/03/16 05:48:57;;;;;;;0.82;0.40;;;9.60;99.90;;;;;;5052033;28;20048;-82
2023/03/16 05:51:26;;;;;;;1.33;0.40;;;9.70;99.90;;;;;;5064979;28;20051;-82
2023/03/16 05:53:57;;;;;;;1.63;0.80;;;9.70;99.90;;;;;;5082011;28;20128;-82
2023/03/16 05:56:24;;;;;;;1.50;0.70;;;9.70;99.90;;;;;;5065457;28;20475;-82
2023/03/16 05:58:52;;;;;;;0.93;0.60;;;9.70;99.90;;;;;;5046208;28;20419;-81
2023/03/16 06:01:19;;;;;;;0.73;0.57;;;9.70;99.90;;;;;;5041536;28;20058;-83
2023/03/16 06:03:47;;;;;;;0.95;0.63;;;9.70;99.90;;;;;;5051555;28;20101;-82
2023/03/16 06:06:15;;;;;;;1.45;0.70;;;9.70;99.90;;;;;;5077080;28;20087;-83
2023/03/16 06:08:42;;;;;;;1.60;0.90;;;9.70;99.90;;;;;;5061625;28;20685;-82
2023/03/16 06:11:10;;;;;;;0.80;0.50;;;9.80;99.90;;;;;;5063552;28;20078;-83
2023/03/16 06:13:38;;;;;;;1.63;1.13;;;9.70;99.90;;;;;;5047654;28;20109;-83
2023/03/16 06:16:05;;;;;;;1.98;0.63;;;9.70;99.90;;;;;;5063675;28;20040;-84
2023/03/16 06:18:33;;;;;;;1.95;0.63;;;9.80;99.90;;;;;;5063740;28;20083;-91
2023/03/16 06:21:00;;;;;;;0.88;0.65;;;9.80;99.90;;;;;;5038059;28;20140;-92
2023/03/16 06:23:27;;;;;;;1.55;0.80;;;9.80;99.90;;;;;;5039248;28;20079;-89
2023/03/16 06:25:54;;;;;;;1.83;0.65;;;9.80;99.90;;;;;;5030104;28;20574;-91
2023/03/16 06:28:22;;;;;;;1.42;0.70;;;9.80;99.90;;;;;;5068467;28;20055;-88
2023/03/16 06:30:53;;;;;;;1.25;0.68;;;9.80;99.90;;;;;;5068119;28;20121;-88
2023/03/16 06:33:20;;;;;;;0.80;0.60;;;9.80;99.90;;;;;;5032638;28;20058;-87
2023/03/16 06:35:48;;;;;;;0.80;0.50;;;9.80;99.90;;;;;;5064408;28;20049;-89
2023/03/16 06:38:16;;;;;;;1.85;0.60;;;9.80;99.90;;;;;;5031256;28;20090;-89
2023/03/16 06:40:43;;;;;;;0.85;0.60;;;9.80;99.90;;;;;;5046416;28;20368;-90
2023/03/16 06:43:10;;;;;;;0.95;0.60;;;9.80;99.90;;;;;;5056425;28;20121;-92
2023/03/16 06:45:37;;;;;;;1.70;0.43;;;9.80;99.90;;;;;;5054311;28;20054;-90
2023/03/16 06:48:05;;;;;;;0.82;0.50;;;9.80;99.90;;;;;;5039767;28;20113;-91
2023/03/16 06:50:32;;;;;;;3.47;0.70;;;9.80;99.90;;;;;;5071678;28;20381;-91
2023/03/16 06:52:59;;;;;;;1.48;0.70;;;9.80;99.90;;;;;;5044359;28;20063;-91
2023/03/16 06:55:27;;;;;;;1.40;0.68;;;9.80;99.90;;;;;;5057219;28;20060;-91
2023/03/16 06:57:54;;;;;;;1.77;0.52;;;9.80;99.90;;;;;;5045542;28;20048;-91
2023/03/16 07:00:22;;;;;;;1.40;0.63;;;9.90;99.90;;;;;;5057700;28;20063;-91
2023/03/16 07:02:49;;;;;;;1.33;0.65;;;9.90;99.90;;;;;;5077959;28;20138;-91
2023/03/16 07:05:16;;;;;;;1.45;0.57;;;9.90;99.90;;;;;;5028600;28;20557;-88
2023/03/16 07:07:44;;;;;;;2.13;0.68;;;9.90;99.90;;;;;;5024345;28;20564;-90
2023/03/16 07:10:12;;;;;;;1.42;0.73;;;9.90;99.90;;;;;;5062918;28;20082;-90
2023/03/16 07:12:41;;;;;;;0.80;0.50;;;10.00;99.90;;;;;;5026752;28;20124;-90
2023/03/16 07:15:08;;;;;;;1.85;0.50;;;10.00;99.90;;;;;;5045612;28;20047;-90
2023/03/16 07:17:35;;;;;;;0.28;0.28;;;10.00;99.90;;;;;;5061295;28;20056;-88
2023/03/16 07:20:09;;;;;;;0.38;0.38;;;10.10;99.90;;;;;;5062559;28;20150;-88
2023/03/16 07:22:36;;;;;;;1.23;0.40;;;10.10;99.90;;;;;;5030321;28;20367;-89
2023/03/16 07:25:04;;;;;;;0.77;0.50;;;10.10;99.90;;;;;;5031125;28;20044;-90
2023/03/16 07:27:31;;;;;;;1.80;0.50;;;10.10;99.90;;;;;;5033571;28;20468;-89
2023/03/16 07:30:03;;;;;;;0.88;0.50;;;10.10;99.90;;;;;;5030054;28;20441;-91
2023/03/16 07:32:31;;;;;;;1.27;0.50;;;10.20;99.90;;;;;;5045214;28;20062;-89
2023/03/16 07:34:58;;;;;;;0.93;0.30;;;10.20;99.90;;;;;;5026095;28;20629;-87
2023/03/16 07:37:25;;;;;;;1.80;0.50;;;10.20;99.90;;;;;;5056121;28;20117;-84
2023/03/16 07:39:52;;;;;;;0.82;0.40;;;10.20;99.90;;;;;;5025299;28;20143;-84
2023/03/16 07:42:19;;;;;;;0.45;0.30;;;10.20;99.90;;;;;;5056092;28;20110;-85
2023/03/16 07:44:46;;;;;;;0.63;0.30;;;10.20;99.90;;;;;;5060341;28;20472;-84
2023/03/16 07:47:13;;;;;;;0.50;0.30;;;10.20;99.90;;;;;;5056640;28;20390;-85
2023/03/16 07:49:40;;;;;;;0.32;0.30;;;10.20;99.90;;;;;;5064060;28;20127;-84
2023/03/16 07:52:07;;;;;;;0.15;0.13;;;10.20;99.90;;;;;;5030707;28;20125;-84
2023/03/16 07:54:34;;;;;;;0.25;0.20;;;10.30;99.90;;;;;;5029973;28;20056;-84
2023/03/16 07:57:01;;;;;;;0.63;0.40;;;10.30;99.90;;;;;;5048768;28;20126;-83
2023/03/16 07:59:28;;;;;;;0.60;0.20;;;10.40;99.90;;;;;;5060937;28;20472;-83
2023/03/16 08:01:55;;;;;;;0.60;0.30;;;10.40;99.90;;;;;;5034200;28;20060;-81
2023/03/16 08:04:22;;;;;;;0.43;0.28;;;10.50;99.90;;;;;;5087343;28;20502;-88
2023/03/16 08:06:51;;;;;;;0.52;0.40;;;10.50;99.90;;;;;;5063065;28;20054;-88
2023/03/16 08:09:18;;;;;;;0.30;0.30;;;10.50;99.90;;;;;;5046385;28;20116;-87
2023/03/16 08:11:45;;;;;;;0.55;0.22;;;10.50;99.90;;;;;;5033201;28;20052;-84
2023/03/16 08:14:12;;;;;;;0.57;0.20;;;10.50;99.90;;;;;;5040985;28;20076;-83
2023/03/16 08:16:38;;;;;;;0.82;0.30;;;10.50;99.90;;;;;;5054522;28;20052;-84
2023/03/16 08:19:05;;;;;;;0.30;0.20;;;10.50;99.90;;;;;;5052843;28;20417;-87
2023/03/16 08:21:32;;;;;;;1.17;0.60;;;10.50;99.90;;;;;;5035867;28;20044;-84
2023/03/16 08:24:06;;;;;;;0.50;0.40;;;10.50;99.90;;;;;;5045690;28;20098;-84
2023/03/16 08:26:33;;;;;;;0.90;0.50;;;10.50;99.90;;;;;;5048683;28;20147;-84
2023/03/16 08:29:02;;;;;;;1.15;0.40;;;10.50;99.90;;;;;;5051456;28;20056;-84
2023/03/16 08:31:29;;;;;;;0.80;0.30;;;10.50;99.90;;;;;;5037388;28;20055;-84
2023/03/16 08:33:56;;;;;;;1.08;0.50;;;10.50;99.90;;;;;;5036626;28;20388;-84
2023/03/16 08:36:23;;;;;;;1.50;0.40;;;10.50;99.90;;;;;;5035820;28;20087;-84
2023/03/16 08:38:51;;;;;;;0.82;0.40;;;10.50;99.90;;;;;;5068462;28;20056;-85
2023/03/16 08:41:33;;;;;;;0.50;0.40;;;10.60;99.90;;;;;;5056862;28;20155;-85
2023/03/16 08:44:01;;;;;;;0.90;0.40;;;10.60;99.90;;;;;;5036536;28;20129;-84
2023/03/16 08:46:29;;;;;;;1.45;0.43;;;10.60;99.90;;;;;;5053435;28;20124;-85
2023/03/16 08:48:56;;;;;;;0.77;0.60;;;10.60;99.90;;;;;;5053090;28;20091;-85
2023/03/16 08:51:23;;;;;;;0.40;0.40;;;10.60;99.90;;;;;;5051914;28;20499;-84
2023/03/16 08:53:51;;;;;;;0.82;0.50;;;10.70;99.90;;;;;;5052739;28;20143;-84
2023/03/16 08:56:18;;;;;;;0.98;0.30;;;10.70;99.90;;;;;;5051856;28;20044;-85
2023/03/16 08:58:46;;;;;;;1.35;0.30;;;10.80;99.90;;;;;;5036543;28;20044;-85
2023/03/16 09:01:17;;;;;;;1.00;0.40;;;10.80;99.90;;;;;;5053223;28;20502;-85
2023/03/16 09:03:45;;;;;;;1.55;0.40;;;10.90;99.90;;;;;;5052444;28;20048;-85
2023/03/16 09:06:15;;;;;;;0.30;0.30;;;10.90;99.90;;;;;;5051895;28;20204;-84
2023/03/16 09:08:44;;;;;;;0.63;0.30;;;11.00;99.90;;;;;;5033754;28;20490;-84
2023/03/16 09:11:13;;;;;;;1.10;0.50;;;11.10;99.90;;;;;;5048791;28;20044;-85
2023/03/16 09:13:40;;;;;;;2.05;0.52;;;11.10;99.90;;;;;;5047637;28;20154;-85
2023/03/16 09:16:08;;;;;;;0.20;0.20;;;11.20;99.90;;;;;;5063070;28;20048;-83
2023/03/16 09:18:35;;;;;;;1.58;0.65;;;11.20;99.90;;;;;;5043909;28;20044;-86
2023/03/16 09:21:04;;;;;;;1.60;0.45;;;11.30;99.90;;;;;;5043286;28;20477;-86
2023/03/16 09:23:36;;;;;;;0.50;0.40;;;11.30;99.90;;;;;;5052408;28;20064;-84
2023/03/16 09:26:06;;;;;;;2.58;0.52;;;11.40;99.90;;;;;;5058327;28;20236;-82
2023/03/16 09:28:34;;;;;;;0.88;0.55;;;11.40;99.90;;;;;;5051680;28;20319;-83
2023/03/16 09:31:02;;;;;;;1.00;0.80;;;11.50;99.90;;;;;;5039301;28;20074;-82
2023/03/16 09:33:30;;;;;;;0.90;0.43;;;11.50;99.90;;;;;;5044673;28;20080;-82
2023/03/16 09:35:57;;;;;;;0.50;0.40;;;11.70;99.90;;;;;;5024412;28;20060;-83
2023/03/16 09:38:25;;;;;;;1.23;0.70;;;11.90;99.90;;;;;;5038358;28;20060;-83
2023/03/16 09:41:30;;;;;;;0.65;0.30;;;12.10;99.90;;;;;;5059418;28;20052;-83
2023/03/16 09:44:19;;;;;;;1.20;0.55;;;12.20;99.90;;;;;;5022719;28;20055;-83
2023/03/16 09:46:47;;;;;;;1.67;0.88;;;12.20;99.90;;;;;;5055415;28;20448;-78
2023/03/16 09:49:15;;;;;;;2.00;0.70;;;12.20;99.90;;;;;;5061957;28;20562;-82
2023/03/16 09:51:42;;;;;;;1.13;0.50;;;12.20;99.90;;;;;;5046604;28;20105;-79
2023/03/16 09:54:18;;;;;;;1.65;0.60;;;12.20;99.90;;;;;;5080366;28;20068;-79
2023/03/16 09:56:45;;;;;;;2.75;1.02;;;12.20;99.90;;;;;;5066661;28;20130;-79
2023/03/16 09:59:14;;;;;;;1.73;0.85;;;12.20;99.90;;;;;;5050240;28;20083;-80
2023/03/16 10:02:15;;;;;;;1.15;0.55;;;12.10;99.90;;;;;;5066802;28;20092;-79
2023/03/16 10:04:54;;;;;;;1.40;0.60;;;12.20;99.90;;;;;;5068942;28;20464;-79
2023/03/16 10:07:49;;;;;;;1.17;0.75;;;12.50;99.90;;;;;;5065137;28;20135;-80
2023/03/16 10:10:22;;;;;;;0.88;0.43;;;12.80;99.90;;;;;;5084212;28;20064;-80
2023/03/16 10:12:50;;;;;;;;;;;13.10;99.90;;;;;;5067385;28;20135;-80
2023/03/16 10:15:18;;;;;;;1.67;0.50;;;13.30;99.90;;;;;;5066171;28;20379;-80
2023/03/16 10:17:57;;;;;;;1.67;0.80;;;13.70;99.90;;;;;;5063059;28;20583;-80
2023/03/16 10:20:26;;;;;;;1.55;0.82;;;13.80;99.90;;;;;;5064498;28;20058;-79
2023/03/16 10:22:53;;;;;;;2.28;1.15;;;13.70;99.90;;;;;;5064820;28;20048;-80
2023/03/16 10:25:38;;;;;;;1.88;0.82;;;13.80;99.90;;;;;;5061719;28;20438;-80
2023/03/16 10:28:06;;;;;;;2.88;0.85;;;13.80;99.90;;;;;;5079924;28;20147;-80
2023/03/16 10:30:35;;;;;;;1.90;0.80;;;13.70;99.90;;;;;;5082505;28;20127;-80
2023/03/16 10:33:25;;;;;;;1.85;0.73;;;13.70;99.90;;;;;;5065470;28;20052;-79
2023/03/16 10:35:55;;;;;;;2.17;0.90;;;13.80;99.90;;;;;;5084229;28;20044;-80
2023/03/16 10:38:29;;;;;;;1.58;0.75;;;13.80;99.90;;;;;;5079952;28;20547;-80
2023/03/16 10:40:56;;;;;;;1.67;0.77;;;13.90;99.90;;;;;;5080016;28;20050;-79
2023/03/16 10:43:24;;;;;;;2.22;0.75;;;13.90;99.90;;;;;;5062537;28;20072;-80
2023/03/16 10:45:50;;;;;;;1.27;0.75;;;14.10;99.90;;;;;;5064079;28;20100;-80
2023/03/16 10:48:19;;;;;;;0.63;0.45;;;14.20;99.90;;;;;;5048144;28;20132;-80
2023/03/16 10:50:54;;;;;;;1.73;0.80;;;14.50;99.90;;;;;;5080505;28;20059;-80
2023/03/16 10:53:27;;;;;;;0.82;0.65;;;14.60;99.90;;;;;;5045457;28;20064;-80
2023/03/16 10:55:58;;;;;;;1.92;0.80;;;14.80;99.90;;;;;;5065429;28;20116;-80
2023/03/16 10:58:28;;;;;;;1.48;0.73;;;14.80;99.90;;;;;;5083880;28;20070;-80
2023/03/16 11:00:56;;;;;;;1.75;0.68;;;14.90;99.90;;;;;;5049327;28;20048;-80
2023/03/16 11:03:30;;;;;;;1.48;0.70;;;15.20;99.90;;;;;;5065253;28;20475;-81
2023/03/16 11:06:02;;;;;;;2.22;0.65;;;15.40;99.90;;;;;;5066101;28;20051;-80
2023/03/16 11:08:33;;;;;;;1.30;0.70;;;15.40;99.90;;;;;;5047519;28;20087;-81
2023/03/16 11:11:07;;;;;;;2.17;0.90;;;15.20;99.90;;;;;;5048278;28;20065;-81
2023/03/16 11:13:36;;;;;;;1.40;0.70;;;15.20;99.90;;;;;;5049572;28;20510;-81
2023/03/16 11:16:20;;;;;;;1.75;0.90;;;15.00;99.90;;;;;;5046210;28;20388;-81
2023/03/16 11:18:55;;;;;;;3.47;1.15;;;15.00;99.90;;;;;;5080041;28;20136;-81
2023/03/16 11:21:43;;;;;;;0.88;0.50;;;15.00;99.90;;;;;;5049191;28;20040;-81
2023/03/16 11:24:22;;;;;;;2.15;0.85;;;15.00;99.90;;;;;;5079883;28;20067;-81
2023/03/16 11:26:54;;;;;;;2.67;0.80;;;15.20;99.90;;;;;;5045574;28;20087;-81
2023/03/16 11:29:23;;;;;;;1.05;0.80;;;15.30;99.90;;;;;;5045915;28;20068;-81
2023/03/16 11:31:54;;;;;;;1.98;0.68;;;15.50;99.90;;;;;;5061989;28;20058;-81
2023/03/16 11:34:29;;;;;;;1.13;0.57;;;15.60;99.90;;;;;;5029318;28;20108;-80
2023/03/16 11:37:01;;;;;;;1.33;0.63;;;15.70;99.90;;;;;;5058238;28;20157;-87
2023/03/16 11:39:46;;;;;;;1.30;0.60;;;15.70;99.90;;;;;;5051096;28;20062;-80
2023/03/16 11:42:29;;;;;;;0.90;0.50;;;15.80;99.90;;;;;;5065367;28;20040;-81
2023/03/16 11:45:21;;;;;;;1.95;0.65;;;15.80;99.90;;;;;;5038016;28;20688;-81
2023/03/16 11:48:29;;;;;;;2.38;0.98;;;15.60;99.90;;;;;;5054602;28;20144;-80
2023/03/16 11:51:03;;;;;;;1.98;0.70;;;15.60;99.90;;;;;;5061762;28;20083;-80
2023/03/16 11:54:00;;;;;;;1.70;0.50;;;15.60;99.90;;;;;;5064211;28;20079;-81
2023/03/16 11:56:33;;;;;;;2.28;0.70;;;15.70;99.90;;;;;;5058359;28;20056;-80
2023/03/16 11:59:21;;;;;;;2.90;0.87;;;15.70;99.90;;;;;;5041849;28;20179;-81
2023/03/16 12:02:07;;;;;;;2.53;1.02;;;15.50;99.90;;;;;;5059665;28;20372;-80
2023/03/16 12:04:51;;;;;;;1.65;0.73;;;15.50;99.90;;;;;;5073644;28;20682;-80
2023/03/16 12:07:24;;;;;;;2.28;0.70;;;15.50;99.90;;;;;;5051538;28;20052;-80
2023/03/16 12:09:54;;;;;;;2.72;0.65;;;15.30;99.90;;;;;;5049695;28;20129;-81
2023/03/16 12:12:28;;;;;;;2.22;0.80;;;15.20;99.90;;;;;;5060958;28;20059;-80
2023/03/16 12:15:05;;;;;;;2.58;0.95;;;15.00;99.90;;;;;;5058605;28;20074;-81
2023/03/16 12:17:32;;;;;;;1.85;0.73;;;15.10;99.90;;;;;;5058254;28;20131;-81
2023/03/16 12:20:05;;;;;;;1.45;0.75;;;15.20;99.90;;;;;;5057760;28;20121;-81
2023/03/16 12:22:35;;;;;;;3.47;1.20;;;15.30;99.90;;;;;;5042278;28;20147;-81
2023/03/16 12:25:02;;;;;;;0.63;0.43;;;15.20;99.90;;;;;;5038926;28;20075;-82
2023/03/16 12:27:35;;;;;;;0.82;0.60;;;15.10;99.90;;;;;;5021930;28;20135;-81
2023/03/16 12:30:22;;;;;;;1.92;0.68;;;15.00;99.90;;;;;;5051989;28;20456;-81
2023/03/16 12:32:59;;;;;;;1.67;0.70;;;14.90;99.90;;;;;;5072307;28;20048;-81
2023/03/16 12:35:52;;;;;;;1.00;0.65;;;14.80;99.90;;;;;;5075634;28;20454;-81
2023/03/16 12:38:36;;;;;;;1.20;0.60;;;14.90;99.90;;;;;;5074178;28;20055;-81
2023/03/16 12:41:15;;;;;;;0.80;0.60;;;15.10;99.90;;;;;;5076780;28;20276;-81
2023/03/16 12:43:58;;;;;;;2.75;0.90;;;15.30;99.90;;;;;;5077093;28;20189;-81
2023/03/16 12:46:37;;;;;;;1.13;0.65;;;15.30;99.90;;;;;;5064942;28;20056;-81
2023/03/16 12:49:04;;;;;;;1.42;0.60;;;15.40;99.90;;;;;;5027256;28;20057;-81
2023/03/16 12:51:42;;;;;;;1.83;0.70;;;15.50;99.90;;;;;;5040613;28;20344;-81
2023/03/16 12:54:22;;;;;;;1.77;0.60;;;15.80;99.90;;;;;;5037570;28;20149;-80
2023/03/16 12:56:50;;;;;;;1.45;0.52;;;16.00;99.90;;;;;;5035160;28;20052;-80
2023/03/16 12:59:19;;;;;;;1.95;1.05;;;16.20;99.90;;;;;;5057819;28;20063;-81
2023/03/16 13:02:00;;;;;;;1.77;0.77;;;16.20;99.90;;;;;;5088588;28;20044;-81
2023/03/16 13:04:34;;;;;;;1.77;0.70;;;16.10;99.90;;;;;;5079388;28;20143;-81
2023/03/16 13:07:14;;;;;;;1.02;0.65;;;16.00;99.90;;;;;;5061247;28;20052;-81
2023/03/16 13:09:53;;;;;;;1.35;0.60;;;16.00;99.90;;;;;;5042484;28;20514;-80